createdAt,value
2022-09-27T00:00:59.012Z,937.81
2022-09-27T00:01:59.085Z,937.84
2022-09-27T00:02:59.169Z,937.87
2022-09-27T00:03:59.049Z,937.83
2022-09-27T00:04:59.061Z,937.81
2022-09-27T00:05:59.089Z,937.79
2022-09-27T00:06:59.086Z,937.75
2022-09-27T00:07:59.099Z,937.78
2022-09-27T00:08:59.114Z,937.78
2022-09-27T00:09:59.127Z,937.78
2022-09-27T00:10:59.138Z,937.78
2022-09-27T00:11:59.150Z,937.69
2022-09-27T00:12:59.182Z,937.65
2022-09-27T00:13:59.175Z,937.61
2022-09-27T00:14:59.188Z,937.65
2022-09-27T00:15:59.315Z,937.70
2022-09-27T00:16:59.217Z,937.69
2022-09-27T00:17:59.225Z,937.72
2022-09-27T00:18:59.237Z,937.68
2022-09-27T00:19:59.253Z,937.71
2022-09-27T00:20:59.263Z,937.79
2022-09-27T00:21:59.277Z,937.81
2022-09-27T00:22:59.287Z,937.84
2022-09-27T00:23:59.303Z,937.84
2022-09-27T00:24:59.315Z,937.79
2022-09-27T00:25:59.329Z,937.79
2022-09-27T00:26:59.348Z,937.78
2022-09-27T00:27:59.351Z,937.76
2022-09-27T00:28:59.385Z,937.75
2022-09-27T00:29:59.378Z,937.75
2022-09-27T00:30:59.428Z,937.80
2022-09-27T00:31:59.404Z,937.81
2022-09-27T00:32:59.413Z,937.84
2022-09-27T00:33:59.427Z,937.82
2022-09-27T00:34:59.438Z,937.73
2022-09-27T00:35:59.455Z,937.74
2022-09-27T00:36:59.464Z,937.66
2022-09-27T00:37:59.477Z,937.67
2022-09-27T00:38:59.492Z,937.64
2022-09-27T00:39:59.503Z,937.63
2022-09-27T00:40:59.581Z,937.62
2022-09-27T00:41:59.529Z,937.62
2022-09-27T00:42:59.542Z,937.59
2022-09-27T00:43:59.560Z,937.47
2022-09-27T00:44:59.588Z,937.39
2022-09-27T00:45:59.620Z,937.36
2022-09-27T00:46:59.590Z,937.39
2022-09-27T00:47:59.605Z,937.43
2022-09-27T00:48:59.614Z,937.48
2022-09-27T00:49:59.630Z,937.54
2022-09-27T00:50:59.640Z,937.54
2022-09-27T00:51:59.654Z,937.63
2022-09-27T00:52:59.692Z,937.61
2022-09-27T00:53:59.679Z,937.60
2022-09-27T00:54:59.692Z,937.55
2022-09-27T00:55:59.705Z,937.52
2022-09-27T00:56:59.716Z,937.48
2022-09-27T00:57:59.730Z,937.45
2022-09-27T00:58:59.740Z,937.52
2022-09-27T00:59:59.753Z,937.50
2022-09-27T01:00:59.830Z,937.44
2022-09-27T01:01:59.778Z,937.39
2022-09-27T01:02:59.855Z,937.32
2022-09-27T01:03:59.804Z,937.24
2022-09-27T01:04:59.817Z,937.20
2022-09-27T01:05:59.830Z,937.19
2022-09-27T01:06:59.843Z,937.17
2022-09-27T01:07:59.859Z,937.18
2022-09-27T01:08:59.867Z,937.22
2022-09-27T01:09:59.904Z,937.30
2022-09-27T01:10:59.893Z,937.34
2022-09-27T01:11:59.906Z,937.31
2022-09-27T01:12:59.919Z,937.33
2022-09-27T01:13:59.929Z,937.36
2022-09-27T01:14:59.942Z,937.34
2022-09-27T01:15:59.979Z,937.32
2022-09-27T01:16:59.986Z,937.28
2022-09-27T01:17:59.982Z,937.27
2022-09-27T01:18:59.992Z,937.24
2022-09-27T01:20:00.013Z,937.21
2022-09-27T01:21:00.026Z,937.21
2022-09-27T01:22:00.033Z,937.19
2022-09-27T01:23:00.046Z,937.23
2022-09-27T01:24:00.057Z,937.20
2022-09-27T01:25:00.070Z,937.21
2022-09-27T01:26:00.086Z,937.18
2022-09-27T01:27:00.099Z,937.17
2022-09-27T01:28:00.104Z,937.20
2022-09-27T01:29:00.119Z,937.20
2022-09-27T01:30:00.150Z,937.22
2022-09-27T01:31:00.228Z,937.28
2022-09-27T01:32:00.155Z,937.30
2022-09-27T01:33:00.189Z,937.32
2022-09-27T01:34:00.182Z,937.35
2022-09-27T01:35:00.195Z,937.31
2022-09-27T01:36:00.205Z,937.27
2022-09-27T01:37:00.219Z,937.23
2022-09-27T01:38:00.232Z,937.24
2022-09-27T01:39:00.245Z,937.25
2022-09-27T01:40:00.274Z,937.20
2022-09-27T01:41:00.329Z,937.17
2022-09-27T01:42:00.283Z,937.21
2022-09-27T01:43:00.299Z,937.18
2022-09-27T01:44:00.307Z,937.20
2022-09-27T01:45:00.323Z,937.23
2022-09-27T01:46:00.402Z,937.25
2022-09-27T01:47:00.342Z,937.27
2022-09-27T01:48:00.357Z,937.25
2022-09-27T01:49:00.392Z,937.22
2022-09-27T01:50:00.384Z,937.22
2022-09-27T01:51:00.395Z,937.19
2022-09-27T01:52:00.407Z,937.16
2022-09-27T01:53:00.420Z,937.17
2022-09-27T01:54:00.432Z,937.20
2022-09-27T01:55:00.445Z,937.17
2022-09-27T01:56:00.455Z,937.16
2022-09-27T01:57:00.471Z,937.10
2022-09-27T01:58:00.481Z,937.12
2022-09-27T01:59:00.493Z,937.13
2022-09-27T02:00:00.507Z,937.11
2022-09-27T02:01:00.572Z,937.14
2022-09-27T02:02:00.533Z,937.13
2022-09-27T02:03:00.649Z,937.13
2022-09-27T02:04:00.558Z,937.08
2022-09-27T02:05:00.592Z,937.10
2022-09-27T02:06:00.583Z,937.09
2022-09-27T02:07:00.594Z,937.06
2022-09-27T02:08:00.607Z,936.98
2022-09-27T02:09:00.619Z,936.99
2022-09-27T02:10:00.633Z,936.89
2022-09-27T02:11:00.644Z,936.81
2022-09-27T02:12:00.659Z,936.71
2022-09-27T02:13:00.677Z,936.68
2022-09-27T02:14:00.683Z,936.63
2022-09-27T02:15:00.701Z,936.59
2022-09-27T02:16:00.786Z,936.58
2022-09-27T02:17:00.721Z,936.50
2022-09-27T02:18:00.735Z,936.52
2022-09-27T02:19:00.746Z,936.53
2022-09-27T02:20:00.759Z,936.58
2022-09-27T02:21:00.791Z,936.61
2022-09-27T02:22:00.784Z,936.64
2022-09-27T02:23:00.799Z,936.70
2022-09-27T02:24:00.807Z,936.75
2022-09-27T02:25:00.819Z,936.74
2022-09-27T02:26:00.833Z,936.76
2022-09-27T02:27:00.846Z,936.72
2022-09-27T02:28:00.857Z,936.74
2022-09-27T02:29:00.871Z,936.73
2022-09-27T02:30:00.883Z,936.75
2022-09-27T02:31:00.982Z,936.79
2022-09-27T02:32:00.911Z,936.78
2022-09-27T02:33:00.922Z,936.73
2022-09-27T02:34:00.933Z,936.72
2022-09-27T02:35:00.946Z,936.68
2022-09-27T02:36:00.963Z,936.62
2022-09-27T02:37:00.989Z,936.59
2022-09-27T02:38:00.984Z,936.53
2022-09-27T02:39:00.996Z,936.52
2022-09-27T02:40:01.007Z,936.49
2022-09-27T02:41:01.084Z,936.53
2022-09-27T02:42:01.035Z,936.56
2022-09-27T02:43:01.045Z,936.54
2022-09-27T02:44:01.057Z,936.52
2022-09-27T02:45:01.070Z,936.47
2022-09-27T02:46:01.116Z,936.49
2022-09-27T02:47:01.100Z,936.49
2022-09-27T02:48:01.107Z,936.51
2022-09-27T02:49:01.125Z,936.47
2022-09-27T02:50:01.133Z,936.36
2022-09-27T02:51:01.146Z,936.32
2022-09-27T02:52:01.158Z,936.28
2022-09-27T02:53:01.191Z,936.34
2022-09-27T02:54:01.184Z,936.35
2022-09-27T02:55:01.195Z,936.31
2022-09-27T02:56:01.210Z,936.23
2022-09-27T02:57:01.227Z,936.08
2022-09-27T02:58:01.234Z,936.06
2022-09-27T02:59:01.246Z,935.99
2022-09-27T03:00:01.263Z,935.96
2022-09-27T03:01:01.313Z,935.90
2022-09-27T03:02:01.327Z,935.87
2022-09-27T03:03:01.391Z,935.88
2022-09-27T03:04:01.308Z,935.84
2022-09-27T03:05:01.328Z,935.82
2022-09-27T03:06:01.333Z,935.77
2022-09-27T03:07:01.345Z,935.80
2022-09-27T03:08:01.369Z,935.74
2022-09-27T03:09:01.395Z,935.75
2022-09-27T03:10:01.385Z,935.74
2022-09-27T03:11:01.397Z,935.78
2022-09-27T03:12:01.409Z,935.70
2022-09-27T03:13:01.421Z,935.60
2022-09-27T03:14:08.958Z,935.47
2022-09-27T03:15:01.445Z,935.29
2022-09-27T03:16:01.961Z,935.19
2022-09-27T03:17:01.595Z,935.10
2022-09-27T03:18:01.484Z,935.05
2022-09-27T03:19:01.499Z,935.07
2022-09-27T03:20:01.510Z,935.06
2022-09-27T03:21:01.523Z,935.06
2022-09-27T03:22:01.535Z,935.05
2022-09-27T03:23:01.553Z,935.05
2022-09-27T03:24:01.558Z,935.06
2022-09-27T03:25:01.612Z,935.12
2022-09-27T03:26:01.585Z,935.12
2022-09-27T03:27:01.597Z,935.19
2022-09-27T03:28:01.613Z,935.25
2022-09-27T03:29:01.621Z,935.28
2022-09-27T03:30:01.637Z,935.26
2022-09-27T03:31:01.744Z,935.20
2022-09-27T03:32:01.658Z,935.05
2022-09-27T03:33:01.673Z,935.03
2022-09-27T03:34:01.683Z,934.92
2022-09-27T03:35:01.697Z,934.86
2022-09-27T03:36:01.708Z,934.86
2022-09-27T03:37:01.722Z,934.85
2022-09-27T03:38:01.734Z,934.91
2022-09-27T03:39:01.746Z,934.88
2022-09-27T03:40:01.759Z,934.87
2022-09-27T03:41:01.853Z,934.91
2022-09-27T03:42:01.784Z,934.93
2022-09-27T03:43:01.803Z,934.89
2022-09-27T03:44:01.813Z,934.80
2022-09-27T03:45:01.821Z,934.79
2022-09-27T03:46:01.887Z,934.79
2022-09-27T03:47:01.846Z,934.78
2022-09-27T03:48:01.859Z,934.77
2022-09-27T03:49:01.873Z,934.76
2022-09-27T03:50:01.885Z,934.72
2022-09-27T03:51:01.896Z,934.74
2022-09-27T03:52:01.911Z,934.75
2022-09-27T03:53:01.923Z,934.78
2022-09-27T03:54:01.935Z,934.79
2022-09-27T03:55:02.569Z,934.68
2022-09-27T03:56:01.959Z,934.64
2022-09-27T03:57:01.992Z,934.59
2022-09-27T03:58:01.984Z,934.51
2022-09-27T03:59:01.995Z,934.47
2022-09-27T04:00:02.018Z,934.40
2022-09-27T04:01:02.094Z,934.38
2022-09-27T04:02:02.114Z,934.36
2022-09-27T04:03:02.048Z,934.33
2022-09-27T04:04:02.059Z,934.27
2022-09-27T04:05:02.072Z,934.27
2022-09-27T04:06:02.085Z,934.24
2022-09-27T04:07:02.096Z,934.24
2022-09-27T04:08:02.110Z,934.24
2022-09-27T04:09:02.123Z,934.28
2022-09-27T04:10:02.137Z,934.33
2022-09-27T04:11:02.148Z,934.30
2022-09-27T04:12:02.161Z,934.28
2022-09-27T04:13:02.193Z,934.21
2022-09-27T04:14:02.185Z,934.20
2022-09-27T04:15:02.199Z,934.19
2022-09-27T04:16:02.209Z,934.19
2022-09-27T04:17:02.272Z,934.17
2022-09-27T04:18:02.235Z,934.16
2022-09-27T04:20:02.262Z,934.09
2022-09-27T04:21:02.271Z,934.07
2022-09-27T04:22:02.285Z,934.11
2022-09-27T04:23:02.295Z,934.09
2022-09-27T04:24:02.314Z,934.10
2022-09-27T04:25:02.322Z,934.13
2022-09-27T04:26:02.335Z,934.07
2022-09-27T04:27:02.348Z,934.09
2022-09-27T04:28:02.362Z,934.08
2022-09-27T04:29:02.392Z,934.01
2022-09-27T04:30:02.384Z,934.01
2022-09-27T04:31:02.438Z,934.01
2022-09-27T04:32:02.409Z,934.01
2022-09-27T04:33:02.423Z,934.03
2022-09-27T04:34:02.436Z,933.99
2022-09-27T04:35:02.446Z,933.99
2022-09-27T04:36:02.467Z,933.98
2022-09-27T04:37:02.472Z,933.97
2022-09-27T04:38:02.484Z,933.99
2022-09-27T04:39:02.499Z,933.98
2022-09-27T04:40:02.509Z,933.95
2022-09-27T04:41:02.656Z,933.91
2022-09-27T04:42:02.535Z,933.88
2022-09-27T04:43:02.550Z,933.85
2022-09-27T04:44:02.560Z,933.81
2022-09-27T04:45:02.591Z,933.80
2022-09-27T04:46:02.675Z,933.81
2022-09-27T04:47:02.614Z,933.80
2022-09-27T04:48:02.610Z,933.79
2022-09-27T04:49:02.622Z,933.79
2022-09-27T04:50:02.646Z,933.80
2022-09-27T04:51:02.650Z,933.83
2022-09-27T04:52:02.658Z,933.81
2022-09-27T04:53:02.672Z,933.81
2022-09-27T04:54:02.683Z,933.82
2022-09-27T04:55:02.700Z,933.78
2022-09-27T04:56:02.708Z,933.80
2022-09-27T04:57:02.721Z,933.76
2022-09-27T04:58:02.736Z,933.70
2022-09-27T04:59:06.791Z,933.64
2022-09-27T05:00:02.758Z,933.59
2022-09-27T05:01:02.926Z,933.59
2022-09-27T05:02:02.926Z,933.57
2022-09-27T05:03:02.947Z,933.59
2022-09-27T05:04:02.821Z,933.61
2022-09-27T05:05:02.820Z,933.61
2022-09-27T05:06:02.846Z,933.59
2022-09-27T05:07:02.845Z,933.57
2022-09-27T05:08:02.861Z,933.55
2022-09-27T05:09:02.871Z,933.52
2022-09-27T05:10:02.884Z,933.50
2022-09-27T05:11:02.896Z,933.47
2022-09-27T05:12:02.909Z,933.48
2022-09-27T05:13:02.920Z,933.48
2022-09-27T05:14:02.933Z,933.45
2022-09-27T05:15:02.953Z,933.40
2022-09-27T05:16:02.968Z,933.38
2022-09-27T05:17:03.051Z,933.43
2022-09-27T05:18:02.983Z,933.41
2022-09-27T05:19:02.997Z,933.43
2022-09-27T05:20:03.012Z,933.46
2022-09-27T05:21:03.021Z,933.45
2022-09-27T05:22:03.032Z,933.43
2022-09-27T05:23:03.043Z,933.44
2022-09-27T05:24:03.058Z,933.45
2022-09-27T05:25:03.076Z,933.50
2022-09-27T05:26:03.083Z,933.49
2022-09-27T05:27:03.097Z,933.47
2022-09-27T05:28:03.116Z,933.43
2022-09-27T05:29:03.126Z,933.43
2022-09-27T05:30:03.136Z,933.36
2022-09-27T05:31:03.259Z,933.35
2022-09-27T05:32:03.158Z,933.40
2022-09-27T05:33:03.192Z,933.38
2022-09-27T05:34:03.181Z,933.39
2022-09-27T05:35:03.195Z,933.46
2022-09-27T05:36:03.208Z,933.52
2022-09-27T05:37:03.221Z,933.52
2022-09-27T05:38:03.233Z,933.49
2022-09-27T05:39:03.244Z,933.52
2022-09-27T05:40:16.859Z,933.47
2022-09-27T05:41:03.365Z,933.48
2022-09-27T05:42:03.283Z,933.44
2022-09-27T05:43:03.301Z,933.42
2022-09-27T05:44:03.309Z,933.42
2022-09-27T05:45:03.319Z,933.43
2022-09-27T05:46:03.385Z,933.43
2022-09-27T05:47:03.343Z,933.46
2022-09-27T05:48:03.361Z,933.47
2022-09-27T05:49:03.386Z,933.45
2022-09-27T05:50:03.382Z,933.44
2022-09-27T05:51:03.394Z,933.47
2022-09-27T05:52:03.406Z,933.43
2022-09-27T05:53:03.421Z,933.43
2022-09-27T05:54:03.436Z,933.41
2022-09-27T05:55:03.442Z,933.39
2022-09-27T05:56:03.455Z,933.40
2022-09-27T05:57:03.469Z,933.38
2022-09-27T05:58:03.482Z,933.35
2022-09-27T05:59:03.495Z,933.39
2022-09-27T06:01:03.520Z,933.34
2022-09-27T06:02:03.735Z,933.35
2022-09-27T06:03:03.601Z,933.28
2022-09-27T06:04:03.559Z,933.28
2022-09-27T06:05:03.593Z,933.32
2022-09-27T06:06:04.189Z,933.32
2022-09-27T06:07:03.613Z,933.29
2022-09-27T06:08:03.607Z,933.31
2022-09-27T06:09:03.636Z,933.27
2022-09-27T06:10:03.632Z,933.29
2022-09-27T06:11:03.642Z,933.18
2022-09-27T06:12:03.656Z,933.17
2022-09-27T06:13:03.671Z,933.15
2022-09-27T06:14:03.680Z,933.09
2022-09-27T06:15:03.692Z,933.08
2022-09-27T06:16:03.716Z,933.11
2022-09-27T06:17:04.103Z,933.13
2022-09-27T06:18:03.732Z,933.11
2022-09-27T06:19:03.742Z,933.09
2022-09-27T06:20:03.757Z,933.11
2022-09-27T06:21:03.788Z,933.08
2022-09-27T06:22:03.782Z,933.12
2022-09-27T06:23:03.791Z,933.10
2022-09-27T06:24:03.804Z,933.15
2022-09-27T06:25:03.816Z,933.17
2022-09-27T06:26:03.831Z,933.18
2022-09-27T06:27:03.842Z,933.22
2022-09-27T06:28:03.854Z,933.23
2022-09-27T06:29:03.867Z,933.24
2022-09-27T06:30:03.881Z,933.25
2022-09-27T06:31:04.065Z,933.25
2022-09-27T06:32:03.902Z,933.25
2022-09-27T06:33:03.917Z,933.27
2022-09-27T06:34:03.928Z,933.29
2022-09-27T06:35:03.943Z,933.29
2022-09-27T06:36:03.980Z,933.27
2022-09-27T06:37:03.991Z,933.29
2022-09-27T06:38:03.979Z,933.29
2022-09-27T06:39:03.991Z,933.31
2022-09-27T06:40:04.004Z,933.35
2022-09-27T06:41:04.016Z,933.34
2022-09-27T06:42:04.029Z,933.36
2022-09-27T06:43:04.040Z,933.36
2022-09-27T06:44:04.053Z,933.38
2022-09-27T06:45:04.064Z,933.36
2022-09-27T06:46:04.156Z,933.33
2022-09-27T06:47:04.092Z,933.39
2022-09-27T06:48:04.107Z,933.37
2022-09-27T06:49:04.117Z,933.33
2022-09-27T06:50:04.129Z,933.30
2022-09-27T06:51:04.140Z,933.28
2022-09-27T06:52:04.152Z,933.23
2022-09-27T06:53:04.188Z,933.20
2022-09-27T06:54:04.178Z,933.20
2022-09-27T06:55:04.206Z,933.20
2022-09-27T06:56:04.203Z,933.17
2022-09-27T06:57:04.215Z,933.14
2022-09-27T06:58:04.228Z,933.15
2022-09-27T06:59:04.240Z,933.17
2022-09-27T07:00:04.252Z,933.20
2022-09-27T07:01:04.370Z,933.21
2022-09-27T07:02:04.312Z,933.24
2022-09-27T07:03:04.291Z,933.22
2022-09-27T07:04:04.301Z,933.28
2022-09-27T07:05:04.317Z,933.28
2022-09-27T07:06:04.327Z,933.26
2022-09-27T07:07:04.338Z,933.33
2022-09-27T07:08:04.351Z,933.36
2022-09-27T07:09:04.380Z,933.42
2022-09-27T07:10:09.594Z,933.45
2022-09-27T07:11:04.388Z,933.47
2022-09-27T07:12:04.400Z,933.45
2022-09-27T07:13:04.416Z,933.41
2022-09-27T07:14:04.426Z,933.45
2022-09-27T07:15:04.438Z,933.46
2022-09-27T07:16:04.570Z,933.48
2022-09-27T07:17:04.463Z,933.48
2022-09-27T07:18:04.478Z,933.46
2022-09-27T07:19:04.489Z,933.44
2022-09-27T07:20:04.503Z,933.44
2022-09-27T07:21:04.512Z,933.45
2022-09-27T07:22:04.524Z,933.52
2022-09-27T07:23:04.537Z,933.52
2022-09-27T07:24:04.550Z,933.59
2022-09-27T07:25:04.583Z,933.61
2022-09-27T07:26:04.576Z,933.64
2022-09-27T07:27:04.586Z,933.66
2022-09-27T07:28:04.605Z,933.69
2022-09-27T07:29:04.612Z,933.68
2022-09-27T07:30:04.625Z,933.77
2022-09-27T07:31:04.706Z,933.81
2022-09-27T07:32:04.650Z,933.85
2022-09-27T07:33:04.662Z,933.89
2022-09-27T07:34:04.673Z,933.93
2022-09-27T07:35:04.684Z,933.97
2022-09-27T07:36:04.700Z,934.00
2022-09-27T07:37:04.711Z,933.99
2022-09-27T07:38:04.723Z,934.00
2022-09-27T07:39:04.738Z,934.03
2022-09-27T07:40:04.747Z,934.04
2022-09-27T07:41:04.780Z,934.07
2022-09-27T07:42:04.779Z,934.07
2022-09-27T07:43:04.786Z,934.07
2022-09-27T07:44:04.798Z,934.04
2022-09-27T07:45:08.982Z,934.06
2022-09-27T07:46:04.851Z,934.04
2022-09-27T07:47:04.835Z,933.99
2022-09-27T07:48:04.849Z,933.96
2022-09-27T07:49:04.859Z,933.93
2022-09-27T07:50:04.873Z,933.90
2022-09-27T07:51:04.889Z,933.91
2022-09-27T07:52:04.898Z,933.98
2022-09-27T07:53:04.909Z,934.04
2022-09-27T07:54:08.622Z,934.10
2022-09-27T07:55:04.936Z,934.20
2022-09-27T07:56:04.946Z,934.23
2022-09-27T07:57:04.978Z,934.26
2022-09-27T07:58:04.981Z,934.22
2022-09-27T07:59:04.985Z,934.25
2022-09-27T08:00:04.997Z,934.21
2022-09-27T08:01:05.120Z,934.25
2022-09-27T08:02:05.070Z,934.23
2022-09-27T08:03:05.034Z,934.26
2022-09-27T08:04:05.045Z,934.29
2022-09-27T08:05:05.061Z,934.30
2022-09-27T08:06:05.071Z,934.34
2022-09-27T08:07:05.082Z,934.35
2022-09-27T08:08:05.097Z,934.40
2022-09-27T08:09:05.108Z,934.41
2022-09-27T08:10:05.120Z,934.40
2022-09-27T08:11:05.131Z,934.42
2022-09-27T08:12:05.144Z,934.44
2022-09-27T08:13:05.184Z,934.45
2022-09-27T08:14:05.170Z,934.47
2022-09-27T08:15:05.190Z,934.47
2022-09-27T08:16:05.301Z,934.47
2022-09-27T08:17:05.206Z,934.54
2022-09-27T08:18:05.221Z,934.54
2022-09-27T08:19:05.230Z,934.53
2022-09-27T08:20:05.245Z,934.56
2022-09-27T08:21:05.257Z,934.58
2022-09-27T08:22:05.270Z,934.63
2022-09-27T08:23:05.281Z,934.64
2022-09-27T08:24:05.297Z,934.66
2022-09-27T08:25:05.306Z,934.63
2022-09-27T08:26:05.318Z,934.65
2022-09-27T08:27:10.799Z,934.66
2022-09-27T08:28:05.346Z,934.66
2022-09-27T08:29:05.378Z,934.69
2022-09-27T08:30:05.367Z,934.69
2022-09-27T08:31:05.381Z,934.71
2022-09-27T08:32:05.431Z,934.73
2022-09-27T08:33:05.407Z,934.71
2022-09-27T08:34:05.416Z,934.76
2022-09-27T08:35:05.428Z,934.76
2022-09-27T08:36:05.442Z,934.75
2022-09-27T08:37:05.454Z,934.81
2022-09-27T08:38:05.467Z,934.86
2022-09-27T08:39:05.478Z,934.91
2022-09-27T08:40:05.490Z,934.91
2022-09-27T08:41:05.507Z,934.97
2022-09-27T08:42:05.720Z,935.04
2022-09-27T08:43:05.529Z,935.06
2022-09-27T08:44:05.540Z,935.03
2022-09-27T08:45:05.576Z,935.07
2022-09-27T08:46:05.590Z,935.08
2022-09-27T08:47:05.579Z,935.09
2022-09-27T08:48:05.591Z,935.05
2022-09-27T08:49:05.616Z,935.02
2022-09-27T08:50:05.615Z,935.07
2022-09-27T08:51:05.627Z,935.04
2022-09-27T08:52:05.640Z,935.05
2022-09-27T08:53:05.652Z,935.09
2022-09-27T08:54:05.664Z,935.09
2022-09-27T08:55:05.675Z,935.07
2022-09-27T08:56:05.898Z,935.12
2022-09-27T08:57:05.700Z,935.14
2022-09-27T08:58:05.713Z,935.13
2022-09-27T08:59:05.726Z,935.19
2022-09-27T09:00:05.740Z,935.20
2022-09-27T09:01:05.827Z,935.21
2022-09-27T09:02:05.818Z,935.24
2022-09-27T09:03:05.776Z,935.24
2022-09-27T09:04:05.791Z,935.25
2022-09-27T09:05:05.802Z,935.26
2022-09-27T09:06:05.815Z,935.27
2022-09-27T09:07:05.826Z,935.27
2022-09-27T09:08:05.838Z,935.31
2022-09-27T09:09:05.852Z,935.33
2022-09-27T09:10:05.865Z,935.34
2022-09-27T09:11:05.875Z,935.32
2022-09-27T09:12:05.886Z,935.33
2022-09-27T09:13:05.898Z,935.35
2022-09-27T09:14:08.271Z,935.34
2022-09-27T09:15:05.922Z,935.33
2022-09-27T09:16:05.990Z,935.32
2022-09-27T09:17:05.970Z,935.37
2022-09-27T09:18:05.961Z,935.41
2022-09-27T09:19:05.973Z,935.39
2022-09-27T09:20:05.986Z,935.43
2022-09-27T09:21:06.001Z,935.42
2022-09-27T09:22:06.010Z,935.53
2022-09-27T09:23:06.022Z,935.53
2022-09-27T09:24:06.036Z,935.61
2022-09-27T09:25:06.047Z,935.65
2022-09-27T09:26:06.060Z,935.64
2022-09-27T09:27:06.085Z,935.66
2022-09-27T09:28:06.085Z,935.63
2022-09-27T09:29:06.101Z,935.64
2022-09-27T09:30:06.111Z,935.63
2022-09-27T09:31:06.121Z,935.65
2022-09-27T09:32:06.217Z,935.65
2022-09-27T09:33:06.168Z,935.67
2022-09-27T09:34:06.159Z,935.67
2022-09-27T09:35:06.170Z,935.71
2022-09-27T09:36:06.184Z,935.73
2022-09-27T09:37:06.195Z,935.75
2022-09-27T09:38:06.207Z,935.77
2022-09-27T09:39:06.223Z,935.76
2022-09-27T09:40:09.045Z,935.77
2022-09-27T09:41:06.244Z,935.76
2022-09-27T09:42:06.259Z,935.78
2022-09-27T09:43:06.270Z,935.80
2022-09-27T09:44:06.284Z,935.82
2022-09-27T09:45:06.295Z,935.86
2022-09-27T09:46:06.354Z,935.89
2022-09-27T09:47:06.318Z,935.91
2022-09-27T09:48:06.331Z,935.95
2022-09-27T09:49:06.365Z,935.96
2022-09-27T09:50:06.357Z,935.97
2022-09-27T09:51:06.368Z,936.03
2022-09-27T09:52:09.011Z,936.04
2022-09-27T09:53:06.392Z,936.06
2022-09-27T09:54:06.406Z,936.12
2022-09-27T09:55:06.419Z,936.14
2022-09-27T09:56:06.430Z,936.16
2022-09-27T09:57:06.443Z,936.13
2022-09-27T09:58:06.455Z,936.13
2022-09-27T09:59:06.467Z,936.17
2022-09-27T10:00:06.479Z,936.18
2022-09-27T10:01:06.531Z,936.22
2022-09-27T10:02:06.554Z,936.23
2022-09-27T10:03:06.515Z,936.25
2022-09-27T10:04:06.531Z,936.25
2022-09-27T10:05:08.089Z,936.32
2022-09-27T10:06:06.558Z,936.31
2022-09-27T10:07:06.567Z,936.27
2022-09-27T10:08:06.579Z,936.26
2022-09-27T10:09:06.596Z,936.25
2022-09-27T10:10:06.605Z,936.29
2022-09-27T10:11:06.615Z,936.32
2022-09-27T10:12:06.628Z,936.33
2022-09-27T10:13:06.641Z,936.30
2022-09-27T10:14:06.654Z,936.27
2022-09-27T10:15:06.663Z,936.24
2022-09-27T10:16:06.749Z,936.21
2022-09-27T10:17:06.690Z,936.21
2022-09-27T10:18:06.701Z,936.26
2022-09-27T10:19:06.714Z,936.37
2022-09-27T10:20:06.726Z,936.41
2022-09-27T10:21:06.764Z,936.42
2022-09-27T10:22:06.756Z,936.43
2022-09-27T10:23:06.763Z,936.40
2022-09-27T10:24:06.778Z,936.37
2022-09-27T10:25:06.789Z,936.40
2022-09-27T10:26:06.802Z,936.33
2022-09-27T10:27:06.816Z,936.38
2022-09-27T10:28:06.828Z,936.40
2022-09-27T10:29:06.841Z,936.37
2022-09-27T10:30:06.850Z,936.43
2022-09-27T10:31:06.865Z,936.44
2022-09-27T10:32:06.876Z,936.43
2022-09-27T10:33:06.886Z,936.39
2022-09-27T10:34:06.901Z,936.38
2022-09-27T10:35:06.911Z,936.41
2022-09-27T10:36:06.926Z,936.39
2022-09-27T10:37:06.959Z,936.39
2022-09-27T10:38:06.949Z,936.33
2022-09-27T10:39:06.961Z,936.38
2022-09-27T10:40:06.973Z,936.41
2022-09-27T10:41:06.987Z,936.44
2022-09-27T10:42:07.003Z,936.40
2022-09-27T10:43:07.009Z,936.41
2022-09-27T10:44:07.023Z,936.39
2022-09-27T10:45:07.034Z,936.39
2022-09-27T10:46:07.077Z,936.34
2022-09-27T10:47:07.059Z,936.31
2022-09-27T10:48:07.071Z,936.26
2022-09-27T10:49:07.084Z,936.24
2022-09-27T10:50:07.099Z,936.25
2022-09-27T10:51:07.110Z,936.29
2022-09-27T10:52:07.120Z,936.31
2022-09-27T10:53:07.154Z,936.38
2022-09-27T10:54:07.147Z,936.41
2022-09-27T10:55:07.158Z,936.46
2022-09-27T10:56:07.170Z,936.45
2022-09-27T10:57:07.183Z,936.47
2022-09-27T10:58:07.197Z,936.47
2022-09-27T10:59:07.207Z,936.42
2022-09-27T11:00:07.230Z,936.46
2022-09-27T11:01:07.369Z,936.46
2022-09-27T11:02:07.247Z,936.47
2022-09-27T11:03:07.256Z,936.54
2022-09-27T11:04:07.269Z,936.53
2022-09-27T11:05:10.284Z,936.55
2022-09-27T11:06:07.294Z,936.54
2022-09-27T11:07:07.307Z,936.55
2022-09-27T11:08:07.320Z,936.52
2022-09-27T11:09:07.355Z,936.53
2022-09-27T11:10:07.343Z,936.56
2022-09-27T11:11:07.356Z,936.53
2022-09-27T11:12:07.383Z,936.53
2022-09-27T11:13:07.380Z,936.57
2022-09-27T11:14:07.392Z,936.55
2022-09-27T11:15:07.403Z,936.56
2022-09-27T11:16:07.460Z,936.52
2022-09-27T11:17:07.429Z,936.54
2022-09-27T11:18:07.443Z,936.55
2022-09-27T11:19:09.928Z,936.56
2022-09-27T11:20:07.468Z,936.60
2022-09-27T11:21:07.481Z,936.59
2022-09-27T11:22:07.491Z,936.61
2022-09-27T11:23:07.504Z,936.63
2022-09-27T11:24:07.612Z,936.62
2022-09-27T11:25:07.552Z,936.62
2022-09-27T11:26:07.541Z,936.56
2022-09-27T11:27:07.552Z,936.57
2022-09-27T11:28:07.566Z,936.54
2022-09-27T11:29:07.579Z,936.55
2022-09-27T11:30:07.593Z,936.53
2022-09-27T11:31:07.652Z,936.51
2022-09-27T11:32:07.641Z,936.54
2022-09-27T11:33:07.628Z,936.52
2022-09-27T11:34:07.639Z,936.58
2022-09-27T11:35:07.651Z,936.58
2022-09-27T11:36:07.665Z,936.57
2022-09-27T11:37:07.679Z,936.58
2022-09-27T11:38:07.690Z,936.62
2022-09-27T11:39:07.710Z,936.62
2022-09-27T11:40:07.760Z,936.61
2022-09-27T11:41:07.886Z,936.59
2022-09-27T11:42:07.740Z,936.57
2022-09-27T11:43:07.750Z,936.59
2022-09-27T11:44:08.116Z,936.60
2022-09-27T11:45:31.895Z,936.60
2022-09-27T11:46:17.871Z,936.62
2022-09-27T11:47:07.859Z,936.62
2022-09-27T11:48:07.848Z,936.56
2022-09-27T11:49:07.839Z,936.58
2022-09-27T11:50:07.838Z,936.53
2022-09-27T11:51:07.850Z,936.51
2022-09-27T11:52:07.864Z,936.56
2022-09-27T11:53:07.876Z,936.52
2022-09-27T11:54:07.888Z,936.56
2022-09-27T11:55:07.902Z,936.54
2022-09-27T11:56:07.912Z,936.59
2022-09-27T11:57:07.947Z,936.58
2022-09-27T11:58:07.938Z,936.59
2022-09-27T11:59:07.953Z,936.61
2022-09-27T12:00:07.962Z,936.65
2022-09-27T12:01:07.975Z,936.63
2022-09-27T12:02:08.110Z,936.63
2022-09-27T12:03:08.068Z,936.64
2022-09-27T12:04:08.013Z,936.65
2022-09-27T12:05:08.024Z,936.61
2022-09-27T12:06:08.099Z,936.63
2022-09-27T12:07:08.049Z,936.55
2022-09-27T12:08:08.064Z,936.61
2022-09-27T12:09:08.074Z,936.57
2022-09-27T12:10:08.088Z,936.55
2022-09-27T12:11:08.121Z,936.53
2022-09-27T12:12:08.111Z,936.47
2022-09-27T12:13:08.145Z,936.47
2022-09-27T12:14:08.139Z,936.47
2022-09-27T12:15:08.148Z,936.49
2022-09-27T12:16:08.202Z,936.53
2022-09-27T12:17:08.174Z,936.51
2022-09-27T12:18:08.186Z,936.55
2022-09-27T12:19:08.199Z,936.47
2022-09-27T12:20:08.210Z,936.45
2022-09-27T12:21:08.223Z,936.45
2022-09-27T12:22:08.237Z,936.41
2022-09-27T12:23:08.247Z,936.41
2022-09-27T12:24:08.259Z,936.34
2022-09-27T12:25:08.272Z,936.32
2022-09-27T12:26:08.286Z,936.31
2022-09-27T12:27:08.296Z,936.30
2022-09-27T12:28:08.310Z,936.32
2022-09-27T12:29:08.423Z,936.31
2022-09-27T12:30:08.740Z,936.29
2022-09-27T12:31:27.918Z,936.25